SDG096 LMML-LIMJ
Flight info
| Callsign | SDG096 |
|---|---|
| Flight time | N/A |
| Altitude | 32000 |
| Route | GZO M622 ADUKA M740 RONAB L12 ELB M729 IDONA |
| Aircraft | A321/M-SDE3GHIRWY/C |
Departure
| Time | N/A |
|---|---|
| Airport | Malta International Airport (LMML) |
Arrival
| Time | 2026-05-08 12:00 |
|---|---|
| Airport | Genoa Cristoforo Colombo Airport (LIMJ) |
| Time | Latitude | Longitude | Altitude | Speed | Heading |
|---|---|---|---|---|---|
| 2026-05-08 11:00 | 39.29682 | 11.91680 | 31995 ft | 433 kts | 349° |
| 2026-05-08 11:01 | 39.35677 | 11.91407 | 31995 ft | 433 kts | 349° |
| 2026-05-08 11:01 | 39.41668 | 11.91132 | 31996 ft | 432 kts | 349° |
| 2026-05-08 11:02 | 39.50648 | 11.90720 | 31998 ft | 432 kts | 349° |
| 2026-05-08 11:03 | 39.56661 | 11.90442 | 31998 ft | 431 kts | 349° |
| 2026-05-08 11:03 | 39.62609 | 11.90171 | 31998 ft | 431 kts | 349° |
| 2026-05-08 11:04 | 39.68589 | 11.89899 | 32002 ft | 431 kts | 349° |
| 2026-05-08 11:04 | 39.74545 | 11.89624 | 32003 ft | 431 kts | 349° |
| 2026-05-08 11:05 | 39.80502 | 11.89221 | 32005 ft | 426 kts | 346° |
| 2026-05-08 11:05 | 39.86309 | 11.88132 | 32006 ft | 421 kts | 341° |
| 2026-05-08 11:06 | 39.91966 | 11.86299 | 32007 ft | 416 kts | 336° |
| 2026-05-08 11:06 | 39.97360 | 11.83834 | 32009 ft | 413 kts | 332° |
| 2026-05-08 11:07 | 40.02714 | 11.81163 | 32012 ft | 413 kts | 332° |
| 2026-05-08 11:07 | 40.08079 | 11.78468 | 32015 ft | 414 kts | 332° |
| 2026-05-08 11:08 | 40.13435 | 11.75781 | 32017 ft | 414 kts | 332° |
| 2026-05-08 11:08 | 40.18827 | 11.73080 | 32019 ft | 415 kts | 332° |
| 2026-05-08 11:09 | 40.24175 | 11.70390 | 32017 ft | 416 kts | 332° |
| 2026-05-08 11:09 | 40.29562 | 11.67674 | 32010 ft | 416 kts | 332° |
| 2026-05-08 11:10 | 40.34983 | 11.64936 | 32003 ft | 418 kts | 332° |
| 2026-05-08 11:10 | 40.40391 | 11.62194 | 31998 ft | 419 kts | 333° |
| 2026-05-08 11:11 | 40.45815 | 11.59435 | 31995 ft | 421 kts | 333° |
| 2026-05-08 11:11 | 40.51265 | 11.56661 | 31995 ft | 423 kts | 333° |
| 2026-05-08 11:12 | 40.56741 | 11.53867 | 31993 ft | 424 kts | 333° |
| 2026-05-08 11:12 | 40.62214 | 11.51072 | 31994 ft | 426 kts | 333° |
| 2026-05-08 11:13 | 40.67757 | 11.48237 | 31995 ft | 428 kts | 333° |
| 2026-05-08 11:13 | 40.73290 | 11.45402 | 32000 ft | 430 kts | 333° |
| 2026-05-08 11:14 | 40.78886 | 11.42532 | 32006 ft | 432 kts | 333° |
| 2026-05-08 11:14 | 40.84487 | 11.39651 | 32015 ft | 434 kts | 333° |
| 2026-05-08 11:15 | 40.90076 | 11.36765 | 32019 ft | 435 kts | 333° |
| 2026-05-08 11:15 | 40.95641 | 11.33883 | 32022 ft | 437 kts | 333° |
| 2026-05-08 11:16 | 41.01273 | 11.30943 | 32021 ft | 438 kts | 333° |
| 2026-05-08 11:16 | 41.06953 | 11.27988 | 32020 ft | 440 kts | 333° |
| 2026-05-08 11:17 | 41.12650 | 11.25034 | 32021 ft | 441 kts | 333° |
| 2026-05-08 11:17 | 41.18360 | 11.22082 | 32021 ft | 443 kts | 334° |
| 2026-05-08 11:18 | 41.24122 | 11.19089 | 32020 ft | 444 kts | 334° |
| 2026-05-08 11:18 | 41.29830 | 11.16114 | 32021 ft | 445 kts | 334° |
| 2026-05-08 11:19 | 41.35572 | 11.13116 | 32018 ft | 446 kts | 334° |
| 2026-05-08 11:19 | 41.41342 | 11.10099 | 32011 ft | 447 kts | 334° |
| 2026-05-08 11:20 | 41.47129 | 11.07064 | 32003 ft | 448 kts | 334° |
| 2026-05-08 11:20 | 41.52932 | 11.04006 | 31997 ft | 449 kts | 334° |
| 2026-05-08 11:21 | 41.58704 | 11.00958 | 31996 ft | 449 kts | 334° |
| 2026-05-08 11:21 | 41.64489 | 10.97904 | 31998 ft | 450 kts | 334° |
| 2026-05-08 11:22 | 41.70307 | 10.94830 | 32000 ft | 450 kts | 334° |
| 2026-05-08 11:22 | 41.76123 | 10.91750 | 32004 ft | 451 kts | 334° |
| 2026-05-08 11:23 | 41.81927 | 10.88672 | 32007 ft | 451 kts | 334° |
| 2026-05-08 11:23 | 41.87726 | 10.85590 | 32010 ft | 451 kts | 334° |
| 2026-05-08 11:24 | 41.93556 | 10.82487 | 32013 ft | 451 kts | 334° |
| 2026-05-08 11:24 | 41.99389 | 10.79379 | 32017 ft | 451 kts | 334° |
| 2026-05-08 11:25 | 42.05217 | 10.76255 | 32018 ft | 459 kts | 334° |
| 2026-05-08 11:25 | 42.11124 | 10.73082 | 32020 ft | 459 kts | 334° |
| 2026-05-08 11:26 | 42.17034 | 10.69920 | 32022 ft | 458 kts | 334° |
| 2026-05-08 11:26 | 42.22910 | 10.66765 | 32022 ft | 458 kts | 334° |
| 2026-05-08 11:27 | 42.28812 | 10.63585 | 32022 ft | 458 kts | 334° |
| 2026-05-08 11:27 | 42.34707 | 10.60399 | 32022 ft | 458 kts | 334° |
| 2026-05-08 11:28 | 42.40591 | 10.57214 | 32022 ft | 458 kts | 334° |
| 2026-05-08 11:28 | 42.46518 | 10.53998 | 32022 ft | 459 kts | 334° |
| 2026-05-08 11:29 | 42.52418 | 10.50791 | 32022 ft | 459 kts | 334° |
| 2026-05-08 11:29 | 42.58328 | 10.47572 | 32022 ft | 459 kts | 334° |
| 2026-05-08 11:30 | 42.64256 | 10.44338 | 32023 ft | 460 kts | 334° |
| 2026-05-08 11:30 | 42.67231 | 10.42711 | 31776 ft | 458 kts | 334° |
| 2026-05-08 11:30 | 42.70133 | 10.41125 | 31521 ft | 446 kts | 334° |
| 2026-05-08 11:30 | 42.72890 | 10.39513 | 31259 ft | 422 kts | 331° |
| 2026-05-08 11:31 | 42.75420 | 10.37779 | 31003 ft | 400 kts | 327° |
| 2026-05-08 11:31 | 42.77797 | 10.36008 | 30752 ft | 389 kts | 327° |
| 2026-05-08 11:31 | 42.80159 | 10.34211 | 30508 ft | 392 kts | 326° |
| 2026-05-08 11:31 | 42.82548 | 10.32379 | 30260 ft | 395 kts | 326° |
| 2026-05-08 11:32 | 42.84928 | 10.30559 | 30018 ft | 399 kts | 326° |
| 2026-05-08 11:32 | 42.87358 | 10.28711 | 29769 ft | 399 kts | 327° |
| 2026-05-08 11:32 | 42.89796 | 10.26864 | 29522 ft | 399 kts | 327° |
| 2026-05-08 11:32 | 42.92196 | 10.25048 | 29281 ft | 398 kts | 327° |
| 2026-05-08 11:33 | 42.94613 | 10.23220 | 29037 ft | 398 kts | 327° |
| 2026-05-08 11:33 | 42.97052 | 10.21373 | 28791 ft | 398 kts | 327° |
| 2026-05-08 11:33 | 42.99462 | 10.19547 | 28534 ft | 398 kts | 327° |
| 2026-05-08 11:33 | 43.01865 | 10.17726 | 28198 ft | 398 kts | 327° |
| 2026-05-08 11:34 | 43.04286 | 10.15889 | 27685 ft | 400 kts | 327° |
| 2026-05-08 11:34 | 43.06711 | 10.14048 | 27065 ft | 402 kts | 327° |
| 2026-05-08 11:34 | 43.09158 | 10.12188 | 26401 ft | 406 kts | 327° |
| 2026-05-08 11:34 | 43.11571 | 10.10355 | 25870 ft | 405 kts | 328° |
| 2026-05-08 11:35 | 43.14028 | 10.08496 | 25435 ft | 401 kts | 328° |
| 2026-05-08 11:35 | 43.16452 | 10.06653 | 25000 ft | 397 kts | 328° |
| 2026-05-08 11:35 | 43.18842 | 10.04830 | 24566 ft | 396 kts | 328° |
| 2026-05-08 11:35 | 43.21239 | 10.03000 | 24129 ft | 396 kts | 328° |
| 2026-05-08 11:36 | 43.23651 | 10.01154 | 23684 ft | 396 kts | 328° |
| 2026-05-08 11:36 | 43.26039 | 9.99324 | 23233 ft | 397 kts | 328° |
| 2026-05-08 11:36 | 43.28463 | 9.97465 | 22772 ft | 397 kts | 328° |
| 2026-05-08 11:36 | 43.30853 | 9.95635 | 22314 ft | 398 kts | 328° |
| 2026-05-08 11:37 | 43.33262 | 9.93789 | 21851 ft | 396 kts | 328° |
| 2026-05-08 11:37 | 43.35619 | 9.91982 | 21399 ft | 385 kts | 329° |
| 2026-05-08 11:37 | 43.37923 | 9.90216 | 20955 ft | 375 kts | 328° |
| 2026-05-08 11:37 | 43.40167 | 9.88487 | 20520 ft | 368 kts | 328° |
| 2026-05-08 11:38 | 43.42422 | 9.86742 | 20071 ft | 370 kts | 329° |
| 2026-05-08 11:38 | 43.44644 | 9.85023 | 19629 ft | 368 kts | 329° |
| 2026-05-08 11:38 | 43.46844 | 9.83322 | 19196 ft | 359 kts | 329° |
| 2026-05-08 11:38 | 43.48975 | 9.81675 | 18776 ft | 352 kts | 329° |
| 2026-05-08 11:39 | 43.51113 | 9.80019 | 18349 ft | 353 kts | 329° |
| 2026-05-08 11:39 | 43.53238 | 9.78370 | 17916 ft | 353 kts | 329° |
| 2026-05-08 11:39 | 43.55379 | 9.76709 | 17485 ft | 355 kts | 329° |
| 2026-05-08 11:39 | 43.57521 | 9.75046 | 17052 ft | 355 kts | 330° |
| 2026-05-08 11:40 | 43.59676 | 9.73371 | 16602 ft | 355 kts | 330° |
| 2026-05-08 11:40 | 43.61831 | 9.71697 | 16153 ft | 356 kts | 330° |
| 2026-05-08 11:40 | 43.63985 | 9.70022 | 15703 ft | 357 kts | 330° |
| 2026-05-08 11:40 | 43.66132 | 9.68353 | 15256 ft | 358 kts | 330° |
| 2026-05-08 11:41 | 43.68313 | 9.66656 | 14802 ft | 358 kts | 330° |
| 2026-05-08 11:41 | 43.70457 | 9.64987 | 14355 ft | 355 kts | 330° |
| 2026-05-08 11:41 | 43.72561 | 9.63348 | 13910 ft | 339 kts | 331° |
| 2026-05-08 11:41 | 43.74540 | 9.61804 | 13497 ft | 323 kts | 331° |
| 2026-05-08 11:42 | 43.76455 | 9.60308 | 13089 ft | 310 kts | 331° |
| 2026-05-08 11:42 | 43.78333 | 9.58841 | 12693 ft | 312 kts | 331° |
| 2026-05-08 11:42 | 43.80209 | 9.57373 | 12294 ft | 313 kts | 331° |
| 2026-05-08 11:42 | 43.82141 | 9.55860 | 11908 ft | 335 kts | 332° |
| 2026-05-08 11:43 | 43.84215 | 9.54237 | 11436 ft | 342 kts | 332° |
| 2026-05-08 11:43 | 43.86222 | 9.52663 | 11263 ft | 318 kts | 332° |
| 2026-05-08 11:43 | 43.88055 | 9.51225 | 11169 ft | 293 kts | 332° |
| 2026-05-08 11:43 | 43.89801 | 9.49856 | 11079 ft | 286 kts | 332° |
| 2026-05-08 11:44 | 43.91522 | 9.48509 | 10974 ft | 285 kts | 332° |
| 2026-05-08 11:44 | 43.93243 | 9.47157 | 10884 ft | 285 kts | 332° |
| 2026-05-08 11:44 | 43.94967 | 9.45801 | 10806 ft | 284 kts | 332° |
| 2026-05-08 11:44 | 43.96682 | 9.44453 | 10731 ft | 284 kts | 332° |
| 2026-05-08 11:45 | 43.98402 | 9.43098 | 10655 ft | 284 kts | 332° |
| 2026-05-08 11:45 | 44.00126 | 9.41741 | 10335 ft | 285 kts | 332° |
| 2026-05-08 11:45 | 44.01834 | 9.40399 | 10024 ft | 282 kts | 332° |
| 2026-05-08 11:45 | 44.03525 | 9.39068 | 9704 ft | 280 kts | 332° |
| 2026-05-08 11:46 | 44.05201 | 9.37748 | 9385 ft | 277 kts | 332° |
| 2026-05-08 11:46 | 44.06840 | 9.36455 | 9080 ft | 276 kts | 332° |
| 2026-05-08 11:46 | 44.08520 | 9.35218 | 8754 ft | 274 kts | 340° |
| 2026-05-08 11:46 | 44.10318 | 9.34595 | 8441 ft | 273 kts | 355° |
| 2026-05-08 11:47 | 44.12205 | 9.34590 | 8151 ft | 271 kts | 3° |
| 2026-05-08 11:47 | 44.14083 | 9.34727 | 7846 ft | 269 kts | 3° |
| 2026-05-08 11:47 | 44.15805 | 9.34848 | 7563 ft | 267 kts | 2° |
| 2026-05-08 11:47 | 44.16842 | 9.34913 | 7389 ft | 267 kts | 2° |
| 2026-05-08 11:48 | 44.18955 | 9.34560 | 6989 ft | 266 kts | 336° |
| 2026-05-08 11:48 | 44.20699 | 9.32871 | 6652 ft | 266 kts | 319° |
| 2026-05-08 11:48 | 44.22080 | 9.31167 | 6343 ft | 263 kts | 319° |
| 2026-05-08 11:48 | 44.23425 | 9.29563 | 6043 ft | 262 kts | 320° |
| 2026-05-08 11:49 | 44.24820 | 9.27943 | 5741 ft | 256 kts | 320° |
| 2026-05-08 11:49 | 44.26161 | 9.26394 | 5452 ft | 248 kts | 320° |
| 2026-05-08 11:49 | 44.27477 | 9.24884 | 5167 ft | 243 kts | 320° |
| 2026-05-08 11:49 | 44.28770 | 9.23403 | 4888 ft | 239 kts | 321° |
| 2026-05-08 11:50 | 44.30037 | 9.21950 | 4630 ft | 237 kts | 321° |
| 2026-05-08 11:50 | 44.31339 | 9.20614 | 4389 ft | 233 kts | 334° |
| 2026-05-08 11:50 | 44.32890 | 9.20091 | 4136 ft | 229 kts | 3° |
| 2026-05-08 11:50 | 44.34349 | 9.20735 | 3982 ft | 220 kts | 37° |
| 2026-05-08 11:51 | 44.35272 | 9.22359 | 3998 ft | 220 kts | 70° |
| 2026-05-08 11:51 | 44.35544 | 9.24445 | 4011 ft | 221 kts | 81° |
| 2026-05-08 11:51 | 44.36124 | 9.26373 | 3958 ft | 219 kts | 43° |
| 2026-05-08 11:51 | 44.37461 | 9.27267 | 3994 ft | 214 kts | 3° |
| 2026-05-08 11:52 | 44.38767 | 9.26718 | 3986 ft | 191 kts | 323° |
| 2026-05-08 11:52 | 44.39681 | 9.25516 | 3964 ft | 171 kts | 310° |
| 2026-05-08 11:52 | 44.40319 | 9.24158 | 3737 ft | 165 kts | 295° |
| 2026-05-08 11:52 | 44.40634 | 9.22695 | 3509 ft | 157 kts | 278° |
| 2026-05-08 11:53 | 44.40605 | 9.21203 | 3495 ft | 154 kts | 258° |
| 2026-05-08 11:53 | 44.40236 | 9.19807 | 3503 ft | 155 kts | 242° |
| 2026-05-08 11:53 | 44.39727 | 9.18475 | 3507 ft | 155 kts | 242° |
| 2026-05-08 11:53 | 44.39242 | 9.17126 | 3506 ft | 155 kts | 244° |
| 2026-05-08 11:54 | 44.38780 | 9.15767 | 3507 ft | 155 kts | 245° |
| 2026-05-08 11:54 | 44.38325 | 9.14391 | 3507 ft | 155 kts | 245° |
| 2026-05-08 11:54 | 44.37882 | 9.13028 | 3512 ft | 155 kts | 245° |
| 2026-05-08 11:54 | 44.37439 | 9.11652 | 3516 ft | 155 kts | 245° |
| 2026-05-08 11:55 | 44.37001 | 9.10285 | 3495 ft | 155 kts | 246° |
| 2026-05-08 11:55 | 44.36562 | 9.08907 | 3463 ft | 155 kts | 246° |
| 2026-05-08 11:55 | 44.36354 | 9.07434 | 3342 ft | 155 kts | 276° |
| 2026-05-08 11:55 | 44.36530 | 9.05956 | 3135 ft | 154 kts | 283° |
| 2026-05-08 11:56 | 44.36798 | 9.04518 | 2919 ft | 154 kts | 286° |
| 2026-05-08 11:56 | 44.37094 | 9.03079 | 2701 ft | 153 kts | 287° |
| 2026-05-08 11:56 | 44.37394 | 9.01656 | 2488 ft | 153 kts | 288° |
| 2026-05-08 11:56 | 44.37700 | 9.00232 | 2273 ft | 153 kts | 288° |
| 2026-05-08 11:57 | 44.38007 | 8.98821 | 2048 ft | 151 kts | 288° |
| 2026-05-08 11:57 | 44.38318 | 8.97402 | 1838 ft | 151 kts | 288° |
| 2026-05-08 11:57 | 44.38626 | 8.95998 | 1633 ft | 151 kts | 289° |
| 2026-05-08 11:57 | 44.38931 | 8.94612 | 1421 ft | 151 kts | 290° |
| 2026-05-08 11:58 | 44.39242 | 8.93201 | 1210 ft | 150 kts | 290° |
| 2026-05-08 11:58 | 44.39550 | 8.91804 | 989 ft | 150 kts | 290° |
| 2026-05-08 11:58 | 44.39853 | 8.90432 | 778 ft | 149 kts | 290° |
| 2026-05-08 11:59 | 44.40464 | 8.87663 | 358 ft | 148 kts | 290° |
| 2026-05-08 11:59 | 44.40769 | 8.86287 | 133 ft | 148 kts | 290° |
| 2026-05-08 11:59 | 44.41070 | 8.84930 | 16 ft | 140 kts | 288° |
| 2026-05-08 11:59 | 44.41226 | 8.83967 | 9 ft | 52 kts | 279° |
| 2026-05-08 12:00 | 44.41246 | 8.83747 | 9 ft | 7 kts | 315° |
| 2026-05-08 12:00 | 44.41249 | 8.83744 | 9 ft | 0 kts | 323° |
| 2026-05-08 12:00 | 44.41253 | 8.83744 | 9 ft | 0 kts | 8° |
| 2026-05-08 12:00 | 44.41268 | 8.83747 | 9 ft | 6 kts | 10° |
| 2026-05-08 12:01 | 44.41317 | 8.83760 | 9 ft | 8 kts | 359° |
| 2026-05-08 12:01 | 44.41378 | 8.83745 | 9 ft | 9 kts | 354° |
| 2026-05-08 12:01 | 44.41431 | 8.83790 | 9 ft | 9 kts | 89° |
| 2026-05-08 12:01 | 44.41412 | 8.83889 | 9 ft | 11 kts | 106° |
| 2026-05-08 12:02 | 44.41389 | 8.84004 | 9 ft | 13 kts | 105° |
| 2026-05-08 12:02 | 44.41364 | 8.84133 | 9 ft | 14 kts | 104° |